createdAt,value
2017-07-08T00:15:02.709Z,101.23
2017-07-08T01:30:02.691Z,102.2
2017-07-08T01:35:02.590Z,102.53
2017-07-08T01:40:02.207Z,103.76
2017-07-08T01:45:02.812Z,103.86
2017-07-08T01:50:02.337Z,104.35
2017-07-08T01:55:02.921Z,103.95
2017-07-08T02:10:02.281Z,103.71
2017-07-08T02:15:02.835Z,103.85
2017-07-08T02:20:02.211Z,103.78
2017-07-08T02:25:02.902Z,104.13
2017-07-08T02:30:02.634Z,104.08
2017-07-08T02:35:02.404Z,103.84
2017-07-08T02:40:02.959Z,103.97
2017-07-08T02:45:02.612Z,103.17
2017-07-08T02:50:02.252Z,103.84
2017-07-08T02:55:02.897Z,104.07
2017-07-08T03:00:02.459Z,104.32
2017-07-08T03:05:02.292Z,104.88
2017-07-08T03:10:02.896Z,104.65
2017-07-08T03:15:02.478Z,104.43
2017-07-08T03:20:02.589Z,103.36
2017-07-08T03:25:02.133Z,103.88
2017-07-08T03:30:02.772Z,104.49
2017-07-08T04:05:02.254Z,102.26
2017-07-08T04:10:02.453Z,102.02
2017-07-08T04:15:02.645Z,102.38
2017-07-08T04:20:02.228Z,101.98
2017-07-08T04:25:02.514Z,102.1
2017-07-08T04:30:02.707Z,102.33
2017-07-08T04:35:02.179Z,102.21
2017-07-08T04:40:02.407Z,102.18
2017-07-08T04:45:02.640Z,102.78
2017-07-08T04:50:02.915Z,102.25
2017-07-08T04:55:02.289Z,102.14
2017-07-08T05:00:02.470Z,101.78
2017-07-08T05:05:02.124Z,101.28
2017-07-08T05:10:02.368Z,101.94
2017-07-08T05:15:02.589Z,101.49
2017-07-08T05:20:02.269Z,101.71
2017-07-08T05:25:02.487Z,101.77
2017-07-08T05:30:02.663Z,101.87
2017-07-08T05:35:02.890Z,101.68
2017-07-08T05:40:02.071Z,101.42
2017-07-08T05:45:02.300Z,101.91
2017-07-08T05:50:02.492Z,101.72
2017-07-08T05:55:02.709Z,102.09
2017-07-08T06:00:02.901Z,100.39
2017-07-08T06:05:02.092Z,100.55
2017-07-08T06:10:02.372Z,99.62
2017-07-08T06:15:02.562Z,99.86
2017-07-08T06:20:02.198Z,96.78
2017-07-08T06:25:02.413Z,98.66
2017-07-08T06:30:02.631Z,98.08
2017-07-08T06:35:03.005Z,98.69
2017-07-08T06:40:02.246Z,98.28
2017-07-08T06:45:02.438Z,97.66
2017-07-08T06:50:02.628Z,97.12
2017-07-08T06:55:02.831Z,97.04
2017-07-08T07:00:03.028Z,96.64
2017-07-08T07:05:02.766Z,95.97
2017-07-08T07:10:03.027Z,96.27
2017-07-08T07:15:02.207Z,95.96
2017-07-08T07:20:02.127Z,95.72
2017-07-08T07:25:02.345Z,96.21
2017-07-08T07:30:02.553Z,96
2017-07-08T07:35:02.395Z,95.29
2017-07-08T07:40:02.603Z,94.49
2017-07-08T07:45:02.802Z,93.89
2017-07-08T07:50:03.021Z,93.32
2017-07-08T07:55:02.290Z,92.48
2017-07-08T08:00:02.516Z,92.35
2017-07-08T08:05:02.464Z,92.34
2017-07-08T08:10:02.669Z,90.61
2017-07-08T08:15:02.876Z,90.16
2017-07-08T08:20:02.523Z,89.84
2017-07-08T08:25:02.715Z,87.78
2017-07-08T08:30:02.898Z,88.13
2017-07-08T08:35:02.264Z,85.34
2017-07-08T08:40:02.510Z,85.01
2017-07-08T08:45:02.666Z,85.03
2017-07-08T08:50:02.081Z,85.19
2017-07-08T08:55:02.316Z,82.42
2017-07-08T09:00:02.546Z,81.61
2017-07-08T09:05:02.191Z,79.15
2017-07-08T09:10:02.411Z,75.8
2017-07-08T09:15:02.604Z,77.27
2017-07-08T09:20:02.303Z,77.45
2017-07-08T09:25:02.541Z,77.52
2017-07-08T09:30:02.700Z,72.36
2017-07-08T09:35:02.942Z,70.99
2017-07-08T09:40:02.166Z,66.92
2017-07-08T09:45:02.363Z,67.83
2017-07-08T09:50:02.097Z,66.76
2017-07-08T09:55:02.284Z,67.75
2017-07-08T10:00:02.472Z,63.34
2017-07-08T10:05:02.851Z,64.57
2017-07-08T10:10:02.040Z,65.19
2017-07-08T10:15:02.275Z,64.08
2017-07-08T10:20:03.023Z,62.87
2017-07-08T10:25:02.212Z,65.64
2017-07-08T10:30:02.460Z,64.98
2017-07-08T10:35:02.077Z,64.38
2017-07-08T10:40:02.320Z,63.02
2017-07-08T10:45:02.505Z,60.59
2017-07-08T10:50:02.718Z,59.65
2017-07-08T10:55:02.955Z,58.96
2017-07-08T11:00:02.123Z,60.73
2017-07-08T11:05:02.074Z,58.24
2017-07-08T11:10:02.326Z,61.47
2017-07-08T11:15:02.531Z,61.02
2017-07-08T11:20:02.616Z,60.14
2017-07-08T11:25:02.816Z,60.33
2017-07-08T11:30:02.988Z,60.03
2017-07-08T11:35:02.199Z,57.52
2017-07-08T11:40:02.402Z,56.95
2017-07-08T11:45:02.632Z,56.56
2017-07-08T11:50:02.921Z,57.78
2017-07-08T11:55:02.102Z,57.2
2017-07-08T12:00:02.295Z,54.73
2017-07-08T12:05:02.206Z,56.27
2017-07-08T12:10:02.446Z,56.89
2017-07-08T12:15:02.624Z,52.89
2017-07-08T12:20:02.063Z,55.66
2017-07-08T12:25:02.320Z,55.56
2017-07-08T12:30:02.514Z,53.39
2017-07-08T12:35:02.762Z,55.89
2017-07-08T12:40:02.960Z,54.92
2017-07-08T12:45:02.102Z,56.38
2017-07-08T12:50:02.909Z,56.11
2017-07-08T12:55:02.081Z,56.41
2017-07-08T13:00:02.282Z,54.78
2017-07-08T13:05:03.014Z,55.79
2017-07-08T13:10:02.191Z,57.16
2017-07-08T13:15:02.423Z,58.88
2017-07-08T13:20:02.484Z,60.01
2017-07-08T13:25:02.670Z,60.3
2017-07-08T13:30:02.876Z,59.46
2017-07-08T13:35:02.055Z,58.01
2017-07-08T13:40:02.328Z,58.75
2017-07-08T13:45:02.535Z,59.04
2017-07-08T13:50:02.296Z,57.95
2017-07-08T13:55:02.477Z,58.59
2017-07-08T14:00:02.695Z,58.43
2017-07-08T14:05:02.394Z,60.3
2017-07-08T14:10:02.612Z,58.72
2017-07-08T14:15:02.801Z,59.07
2017-07-08T14:20:02.409Z,59.32
2017-07-08T14:25:02.599Z,60.33
2017-07-08T14:30:02.782Z,59.1
2017-07-08T14:35:02.033Z,59.63
2017-07-08T14:40:02.307Z,61.14
2017-07-08T14:45:02.495Z,61.63
2017-07-08T14:50:02.365Z,65.65
2017-07-08T14:55:02.591Z,68.41
2017-07-08T15:00:02.854Z,70.34
2017-07-08T15:05:02.545Z,68.87
2017-07-08T15:10:02.790Z,69.34
2017-07-08T15:15:03.020Z,69.59
2017-07-08T15:20:02.569Z,70.17
2017-07-08T15:25:02.757Z,72.59
2017-07-08T15:30:02.944Z,72.22
2017-07-08T15:35:02.707Z,71.3
2017-07-08T15:40:02.900Z,71.8
2017-07-08T15:45:02.096Z,72.75
2017-07-08T15:50:02.308Z,73.59
2017-07-08T15:55:02.516Z,74.89
2017-07-08T16:00:02.764Z,73.84
2017-07-08T16:05:02.864Z,73.8
2017-07-08T16:10:02.045Z,73.94
2017-07-08T16:15:02.277Z,72.37
2017-07-08T16:20:02.110Z,73.12
2017-07-08T16:25:02.272Z,73.04
2017-07-08T16:30:02.477Z,71.94
2017-07-08T16:35:02.331Z,71.16
2017-07-08T16:40:02.552Z,70.73
2017-07-08T16:45:02.788Z,71.14
2017-07-08T16:50:02.863Z,70.42
2017-07-08T16:55:02.041Z,70.47
2017-07-08T17:00:02.289Z,70.03
2017-07-08T17:05:02.493Z,69.7
2017-07-08T17:10:02.718Z,69.87
2017-07-08T17:15:02.876Z,73.58
2017-07-08T17:20:02.407Z,70.4
2017-07-08T17:25:02.587Z,69.81
2017-07-08T17:30:02.814Z,70.15
2017-07-08T17:35:02.029Z,70
2017-07-08T17:40:02.258Z,70.46
2017-07-08T17:45:02.497Z,70.72
2017-07-08T17:50:02.402Z,71.74
2017-07-08T17:55:02.595Z,72.71
2017-07-08T18:00:02.788Z,73.33
2017-07-08T18:05:02.060Z,72.55
2017-07-08T18:10:02.313Z,71.88
2017-07-08T18:15:02.551Z,71.93
2017-07-08T18:20:02.093Z,72.32
2017-07-08T18:25:02.332Z,72.58
2017-07-08T18:30:02.532Z,72.88
2017-07-08T18:35:02.718Z,72.8
2017-07-08T18:40:02.949Z,73.29
2017-07-08T18:45:02.188Z,73.52
2017-07-08T18:50:02.439Z,74.66
2017-07-08T18:55:02.650Z,73.96
2017-07-08T19:00:02.936Z,74.75
2017-07-08T19:05:02.679Z,74.81
2017-07-08T19:10:02.911Z,75.97
2017-07-08T19:15:02.065Z,75.68
2017-07-08T19:20:02.050Z,77.2
2017-07-08T19:25:02.349Z,77.14
2017-07-08T19:30:02.647Z,79.3
2017-07-08T19:35:02.467Z,79.64
2017-07-08T19:40:02.653Z,80.22
2017-07-08T19:45:02.952Z,80.75
2017-07-08T19:50:02.427Z,81.92
2017-07-08T19:55:02.629Z,81.8
2017-07-08T20:00:02.808Z,82.09
2017-07-08T20:05:02.673Z,83.02
2017-07-08T20:10:02.933Z,82.87
2017-07-08T20:15:02.115Z,83.31
2017-07-08T20:20:02.945Z,84.28
2017-07-08T20:25:02.123Z,84.6
2017-07-08T20:30:02.366Z,83.32
2017-07-08T20:35:02.576Z,83.03
2017-07-08T20:40:02.806Z,85.25
2017-07-08T20:45:02.996Z,85.43
2017-07-08T20:50:02.342Z,85.31
2017-07-08T20:55:02.547Z,83.06
2017-07-08T21:00:02.769Z,83.95
2017-07-08T21:05:02.702Z,83.8
2017-07-08T21:10:02.920Z,84.95
2017-07-08T21:15:02.107Z,84.66
2017-07-08T21:20:02.714Z,84.24
2017-07-08T21:25:02.917Z,84.35
2017-07-08T21:30:02.103Z,85.59
2017-07-08T21:35:02.580Z,86.82
2017-07-08T21:40:02.777Z,86.71
2017-07-08T21:45:02.938Z,86.32
2017-07-08T21:50:02.453Z,85.2
2017-07-08T21:55:02.636Z,86.11
2017-07-08T22:00:03.022Z,85.64
2017-07-08T22:05:02.251Z,85.59
2017-07-08T22:10:02.460Z,85.88
2017-07-08T22:15:02.660Z,85.37
2017-07-08T22:20:02.561Z,85.86
2017-07-08T22:25:02.748Z,85.9
2017-07-08T22:30:03.004Z,85.65
2017-07-08T22:35:02.330Z,85.07
2017-07-08T22:40:02.559Z,86.46
2017-07-08T22:45:02.772Z,85.34
2017-07-08T22:50:02.719Z,85.88
2017-07-08T22:55:02.966Z,85.46
2017-07-08T23:00:02.126Z,85.24
2017-07-08T23:05:02.510Z,85.19
2017-07-08T23:10:02.735Z,84.36
2017-07-08T23:15:02.960Z,84.62
2017-07-08T23:20:02.742Z,84.79
2017-07-08T23:25:02.935Z,85.45
2017-07-08T23:30:02.144Z,85.02
2017-07-08T23:35:02.643Z,85.8
2017-07-08T23:40:02.817Z,86.21
2017-07-08T23:45:02.001Z,86.53
2017-07-08T23:50:02.088Z,84.44
2017-07-08T23:55:02.321Z,84.31
